createdAt,value
2022-11-24T00:02:32.710Z,5.3
2022-11-24T00:07:46.944Z,5.4
2022-11-24T00:12:58.274Z,5.4
2022-11-24T00:18:09.940Z,5.5
2022-11-24T00:28:41.726Z,5.4
2022-11-24T00:33:53.384Z,5.4
2022-11-24T00:44:36.663Z,5.4
2022-11-24T00:49:53.396Z,5.3
2022-11-24T00:55:07.985Z,5.4
2022-11-24T01:00:20.835Z,5.2
2022-11-24T01:05:32.701Z,5
2022-11-24T01:16:07.688Z,5
2022-11-24T01:21:18.656Z,5
2022-11-24T01:26:31.117Z,4.9
2022-11-24T01:31:51.036Z,4.9
2022-11-24T01:36:57.678Z,4.9
2022-11-24T01:42:09.082Z,4.9
2022-11-24T01:47:19.260Z,4.9
2022-11-24T01:52:30.181Z,4.9
2022-11-24T01:57:42.047Z,4.9
2022-11-24T02:02:55.163Z,4.9
2022-11-24T02:13:30.781Z,4.9
2022-11-24T02:18:47.325Z,5
2022-11-24T02:23:59.641Z,5
2022-11-24T02:29:16.070Z,5
2022-11-24T02:34:28.543Z,5.1
2022-11-24T02:39:39.119Z,5.1
2022-11-24T02:50:13.550Z,5.1
2022-11-24T02:55:25.677Z,5
2022-11-24T03:00:35.958Z,5.2
2022-11-24T03:05:46.815Z,5.1
2022-11-24T03:11:04.099Z,5.1
2022-11-24T03:16:14.238Z,5
2022-11-24T03:26:47.460Z,4.9
2022-11-24T03:31:59.469Z,4.9
2022-11-24T03:37:09.443Z,4.9
2022-11-24T03:47:42.822Z,5.1
2022-11-24T03:52:54.672Z,5.2
2022-11-24T03:58:07.095Z,5.2
2022-11-24T04:03:18.452Z,5
2022-11-24T04:08:30.335Z,4.9
2022-11-24T04:13:42.435Z,5
2022-11-24T04:18:53.921Z,5.1
2022-11-24T04:24:06.070Z,5.1
2022-11-24T04:34:37.678Z,4.9
2022-11-24T04:39:53.281Z,4.8
2022-11-24T04:45:00.464Z,4.8
2022-11-24T04:55:33.681Z,4.9
2022-11-24T05:06:08.127Z,4.8
2022-11-24T05:11:18.389Z,5
2022-11-24T05:16:30.956Z,5
2022-11-24T05:21:42.022Z,5
2022-11-24T05:26:56.193Z,5.1
2022-11-24T05:32:07.621Z,5.2
2022-11-24T05:42:48.592Z,5.2
2022-11-24T05:48:00.388Z,5.2
2022-11-24T05:53:12.352Z,5.3
2022-11-24T05:58:24.121Z,5.2
2022-11-24T06:03:35.325Z,5.2
2022-11-24T06:14:12.645Z,5.2
2022-11-24T06:19:22.984Z,4.9
2022-11-24T06:24:36.788Z,4.9
2022-11-24T06:29:47.419Z,4.8
2022-11-24T06:34:58.678Z,4.7
2022-11-24T06:40:08.713Z,4.7
2022-11-24T06:45:20.312Z,4.6
2022-11-24T06:50:35.331Z,4.6
2022-11-24T06:55:48.120Z,4.8
2022-11-24T07:00:59.642Z,5
2022-11-24T07:06:10.680Z,5.1
2022-11-24T07:11:22.928Z,5.2
2022-11-24T07:16:34.693Z,5.3
2022-11-24T07:32:29.031Z,5.4
2022-11-24T07:43:06.676Z,5.4
2022-11-24T07:53:38.696Z,5.6
2022-11-24T08:04:12.380Z,5.6
2022-11-24T08:20:04.454Z,5.6
2022-11-24T08:41:20.923Z,5.7
2022-11-24T08:46:33.717Z,5.7
2022-11-24T08:51:45.092Z,5.6
2022-11-24T09:02:22.710Z,5.6
2022-11-24T09:07:34.779Z,5.7
2022-11-24T09:12:49.136Z,5.7
2022-11-24T09:18:01.599Z,5.5
2022-11-24T09:28:35.120Z,5.5
2022-11-24T09:33:45.285Z,5.4
2022-11-24T09:44:17.467Z,5.5
2022-11-24T09:49:29.630Z,5.4
2022-11-24T09:54:41.004Z,5.5
2022-11-24T09:59:52.295Z,5.6
2022-11-24T10:05:12.649Z,5.6
2022-11-24T10:10:25.617Z,5.5
2022-11-24T10:15:31.982Z,5.4
2022-11-24T10:20:43.761Z,5.2
2022-11-24T10:25:53.271Z,5
2022-11-24T10:31:06.700Z,4.8
2022-11-24T10:36:17.888Z,4.8
2022-11-24T10:41:29.462Z,4.7
2022-11-24T10:46:40.213Z,4.5
2022-11-24T10:51:55.903Z,4.5
2022-11-24T10:57:11.180Z,4.4
2022-11-24T11:02:21.376Z,4.3
2022-11-24T11:07:33.132Z,4.3
2022-11-24T11:12:45.779Z,4.4
2022-11-24T11:18:00.837Z,4.4
2022-11-24T11:23:13.206Z,4.5
2022-11-24T11:34:18.358Z,4.8
2022-11-24T11:38:57.796Z,5.1
2022-11-24T11:44:08.179Z,5.4
2022-11-24T11:49:19.853Z,5.7
2022-11-24T11:54:33.662Z,5.8
2022-11-24T11:59:41.506Z,5.7
2022-11-24T12:04:53.884Z,5.6
2022-11-24T12:10:16.696Z,5.6
2022-11-24T12:15:24.126Z,5.8
2022-11-24T12:20:35.160Z,5.9
2022-11-24T12:32:17.993Z,6.2
2022-11-24T12:42:52.603Z,6.2
2022-11-24T12:48:04.701Z,6
2022-11-24T12:53:17.630Z,5.8
2022-11-24T12:58:29.170Z,5.8
2022-11-24T13:03:40.769Z,5.7
2022-11-24T13:14:11.142Z,5.7
2022-11-24T13:19:23.245Z,6.2
2022-11-24T13:24:35.837Z,5.7
2022-11-24T13:29:44.504Z,5.7
2022-11-24T13:51:02.790Z,5.7
2022-11-24T13:56:11.474Z,5.2
2022-11-24T14:01:24.081Z,5.2
2022-11-24T14:06:33.250Z,5.1
2022-11-24T14:11:45.635Z,5.2
2022-11-24T14:16:56.764Z,5.3
2022-11-24T14:22:07.543Z,5.4
2022-11-24T14:32:43.808Z,7
2022-11-24T14:37:56.186Z,7.2
2022-11-24T14:43:11.882Z,7.2
2022-11-24T14:53:49.038Z,7.2
2022-11-24T14:59:03.048Z,6.2
2022-11-24T15:05:03.528Z,6
2022-11-24T15:09:25.504Z,5.9
2022-11-24T15:14:37.539Z,5.8
2022-11-24T15:19:48.441Z,5.9
2022-11-24T15:30:23.259Z,5.9
2022-11-24T15:35:37.460Z,5.6
2022-11-24T15:40:52.111Z,5.5
2022-11-24T15:51:27.002Z,5.2
2022-11-24T15:56:34.557Z,5.1
2022-11-24T16:01:46.727Z,5
2022-11-24T16:06:55.266Z,4.8
2022-11-24T16:12:06.885Z,4.8
2022-11-24T16:17:18.667Z,4.9
2022-11-24T16:22:29.245Z,4.8
2022-11-24T16:27:40.207Z,4.8
2022-11-24T16:32:51.789Z,4.8
2022-11-24T16:48:46.684Z,4.5
2022-11-24T16:53:58.567Z,4.4
2022-11-24T16:59:09.796Z,4.3
2022-11-24T17:09:43.792Z,4.4
2022-11-24T17:20:23.414Z,4.3
2022-11-24T17:36:12.234Z,4.2
2022-11-24T17:46:48.748Z,4.2
2022-11-24T17:57:22.451Z,3.8
2022-11-24T18:02:34.412Z,3.8
2022-11-24T18:07:44.184Z,3.7
2022-11-24T18:12:58.289Z,3.7
2022-11-24T18:18:10.503Z,3.7
2022-11-24T18:23:30.562Z,3.7
2022-11-24T18:28:45.174Z,3.7
2022-11-24T18:39:32.210Z,3.7
2022-11-24T18:44:41.474Z,3.2
2022-11-24T18:49:56.461Z,3.2
2022-11-24T18:55:10.637Z,3.2
2022-11-24T19:05:46.640Z,3.2
2022-11-24T19:10:58.434Z,3
2022-11-24T19:16:09.443Z,3
2022-11-24T19:21:21.025Z,3
2022-11-24T19:26:31.422Z,2.9
2022-11-24T19:37:04.842Z,2.6
2022-11-24T19:42:20.382Z,2.6
2022-11-24T19:52:53.235Z,2.6
2022-11-24T20:03:34.005Z,2.6
2022-11-24T20:08:44.255Z,2.4
2022-11-24T20:24:38.737Z,2.4
2022-11-24T20:29:53.200Z,2.4
2022-11-24T20:35:06.366Z,2.4
2022-11-24T20:50:59.137Z,2.2
2022-11-24T21:01:32.259Z,2.1
2022-11-24T21:12:05.240Z,2.2
2022-11-24T21:17:16.376Z,2.1
2022-11-24T21:27:51.145Z,2.1
2022-11-24T21:33:03.507Z,2
2022-11-24T21:38:15.055Z,2.1
2022-11-24T21:43:29.107Z,2.1
2022-11-24T22:04:46.349Z,2
2022-11-24T22:15:19.765Z,1.7
2022-11-24T22:31:13.123Z,1.5
2022-11-24T22:36:24.221Z,1.5
2022-11-24T22:46:58.066Z,1.2
2022-11-24T22:52:08.785Z,1.1
2022-11-24T22:57:20.522Z,1.2
2022-11-24T23:07:57.228Z,1.2
2022-11-24T23:13:16.270Z,1.3
2022-11-24T23:18:29.088Z,1.7
2022-11-24T23:29:02.075Z,1.4
2022-11-24T23:34:13.202Z,1.4
2022-11-24T23:39:23.569Z,1.3
2022-11-24T23:55:18.379Z,1.1
